Airfield :







YOU CAN JOIN US ON...

 
LOGIN :

Register | Disclaimer

   EN    FR    IT 

 









Legend :    VFR   Marginal VFR   IFR   Intensive IFR   Very Intensive IFR
Visi :
Ceiling :
>= 8 km
>= 3000ft
5 to 8 km
1000 to 3000 ft
1500m to 5 km
500 to 1000 ft
800 to 1500m
200 to 500 ft
< 800m
< 200 ft
Symbols :   Thunderstorms  Fog  Heavy snow  Heavy precipitations  Wind > 20 kt







- Airport Elevation : 232 ft
- IATA code : YQM


CYQM - Greater Moncton International

CURRENT METAR :
  • 222000Z 22014G20KT 15SM FEW045 FEW160 BKN250 25/15 A2988 RMK CU1AC1CI4 CU TR SLP122 DENSITY ALT 1500FT

EXPIRED METARs :
  • 221900Z 22018G23KT 15SM FEW045 FEW160 BKN250 25/15 A2991 RMK CU1AC1CI3 SLP131 DENSITY ALT 1500FT
  • 221800Z 24015KT 15SM FEW041 FEW140 SCT250 26/15 A2994 RMK CU1AC1CI1 SLP141 DENSITY ALT 1500FT
  • 221700Z 23011G18KT 15SM FEW041 FEW140 SCT250 25/15 A2997 RMK CU1AC1CI3 CU TR SLP152 DENSITY ALT 1400FT

TAF TAF CYQM
Valid from the 22 at 18:00 until the 23 at 18:00 UTC


221742Z 2218/2318 23012G22KT P6SM FEW040
BECMG 2222/2223 20015KT
FM230300 20015KT P6SM SCT100
FM231400 25012G22KT P6SM BKN100
FM231700 27010G20KT 5SM -RA BR OVC040 RMK NXT FCST BY 230000Z
No reported NOTAMs for that airfield.



MET'MAP, your aeronautical weather chart ! - Copyright ORBIFLY December 2007 - Disclaimer

ORBIFLY MET'MAP TEAM :

Programming & Development : Alexandra Zaïnal
Concept & Development : Baudouin d'Aumeries
Co-Development & Prog : Marc-Olivier Méhu
Technical & hardware support : Manuel Goepfert

Contact : metmap@orbifly.com




SOURCES & CREDITS :

   NOAA